createdAt,value
2023-01-02T00:01:13.398Z,20.00
2023-01-02T00:06:10.323Z,19.90
2023-01-02T00:08:39.921Z,20.30
2023-01-02T00:21:04.298Z,19.60
2023-01-02T00:23:33.093Z,19.90
2023-01-02T00:26:02.995Z,20.00
2023-01-02T00:28:31.934Z,20.00
2023-01-02T00:33:28.572Z,19.80
2023-01-02T00:43:23.322Z,19.90
2023-01-02T00:45:51.424Z,19.80
2023-01-02T00:53:17.083Z,19.70
2023-01-02T00:58:14.231Z,19.60
2023-01-02T01:00:43.740Z,19.80
2023-01-02T01:03:11.932Z,19.70
2023-01-02T01:05:41.260Z,19.80
2023-01-02T01:08:09.617Z,19.90
2023-01-02T01:10:38.737Z,19.50
2023-01-02T01:13:07.373Z,20.10
2023-01-02T01:18:05.966Z,19.90
2023-01-02T01:35:26.026Z,19.80
2023-01-02T01:37:54.164Z,19.70
2023-01-02T01:45:21.997Z,19.80
2023-01-02T01:47:54.182Z,19.30
2023-01-02T01:50:29.078Z,19.60
2023-01-02T01:53:02.474Z,20.40
2023-01-02T01:55:33.155Z,19.20
2023-01-02T01:58:05.346Z,19.60
2023-01-02T02:03:07.137Z,19.80
2023-01-02T02:05:37.829Z,19.50
2023-01-02T02:08:11.840Z,20.10
2023-01-02T02:13:08.661Z,19.90
2023-01-02T02:15:44.638Z,19.70
2023-01-02T02:18:26.326Z,19.70
2023-01-02T02:21:01.867Z,19.70
2023-01-02T02:24:11.055Z,20.20
2023-01-02T02:27:02.383Z,19.90
2023-01-02T02:30:08.670Z,19.80
2023-01-02T02:33:05.733Z,20.10
2023-01-02T02:35:44.020Z,20.70
2023-01-02T02:38:21.072Z,19.60
2023-01-02T02:40:56.645Z,19.80
2023-01-02T02:43:33.581Z,19.60
2023-01-02T02:46:14.054Z,19.80
2023-01-02T02:48:59.260Z,19.70
2023-01-02T02:51:33.793Z,19.70
2023-01-02T02:54:07.361Z,19.40
2023-01-02T02:59:05.652Z,19.40
2023-01-02T03:04:06.067Z,19.30
2023-01-02T03:06:50.421Z,19.60
2023-01-02T03:09:22.703Z,19.60
2023-01-02T03:12:00.828Z,19.80
2023-01-02T03:14:34.667Z,19.60
2023-01-02T03:17:08.726Z,19.10
2023-01-02T03:19:43.504Z,19.40
2023-01-02T03:22:17.320Z,19.70
2023-01-02T03:24:48.953Z,19.80
2023-01-02T03:27:20.298Z,19.40
2023-01-02T03:29:53.271Z,19.70
2023-01-02T03:32:25.172Z,19.90
2023-01-02T03:34:54.995Z,20.40
2023-01-02T03:37:26.661Z,20.00
2023-01-02T03:39:58.594Z,20.50
2023-01-02T03:42:30.355Z,19.50
2023-01-02T03:45:03.590Z,19.40
2023-01-02T03:50:08.380Z,19.60
2023-01-02T03:55:06.085Z,19.80
2023-01-02T03:57:39.225Z,19.70
2023-01-02T04:00:10.891Z,19.90
2023-01-02T04:02:46.522Z,19.50
2023-01-02T04:05:21.747Z,19.30
2023-01-02T04:07:58.197Z,19.80
2023-01-02T04:10:28.439Z,19.50
2023-01-02T04:13:02.033Z,19.60
2023-01-02T04:15:34.508Z,19.60
2023-01-02T04:18:09.562Z,19.90
2023-01-02T04:20:41.899Z,19.40
2023-01-02T04:23:12.205Z,19.80
2023-01-02T04:25:43.816Z,19.60
2023-01-02T04:28:17.759Z,20.20
2023-01-02T04:30:51.236Z,19.50
2023-01-02T04:33:23.209Z,19.60
2023-01-02T04:38:19.904Z,20.00
2023-01-02T04:43:19.540Z,19.90
2023-01-02T04:48:17.671Z,19.30
2023-01-02T04:50:48.913Z,19.80
2023-01-02T04:53:17.215Z,19.80
2023-01-02T04:55:45.345Z,19.80
2023-01-02T04:58:13.452Z,19.40
2023-01-02T05:00:41.579Z,20.40
2023-01-02T05:03:09.817Z,19.80
2023-01-02T05:08:13.895Z,19.70
2023-01-02T05:10:44.190Z,19.50
2023-01-02T05:15:40.779Z,19.60
2023-01-02T05:20:37.360Z,20.30
2023-01-02T05:25:52.871Z,20.10
2023-01-02T05:28:20.960Z,20.00
2023-01-02T05:30:49.691Z,20.00
2023-01-02T05:33:17.911Z,19.80
2023-01-02T05:35:46.050Z,19.30
2023-01-02T05:38:14.177Z,20.40
2023-01-02T05:40:42.293Z,19.80
2023-01-02T05:43:11.780Z,19.80
2023-01-02T05:45:39.933Z,20.50
2023-01-02T05:48:08.117Z,19.90
2023-01-02T05:50:36.240Z,19.90
2023-01-02T05:53:04.474Z,19.90
2023-01-02T05:58:02.445Z,20.40
2023-01-02T06:00:31.967Z,19.60
2023-01-02T06:03:00.158Z,19.90
2023-01-02T06:05:28.339Z,20.00
2023-01-02T06:07:56.457Z,19.20
2023-01-02T06:10:24.576Z,19.80
2023-01-02T06:12:52.704Z,20.00
2023-01-02T06:15:20.815Z,20.00
2023-01-02T06:17:50.325Z,19.50
2023-01-02T06:20:18.558Z,19.90
2023-01-02T06:25:15.090Z,19.90
2023-01-02T06:27:43.211Z,20.10
2023-01-02T06:30:12.012Z,19.80
2023-01-02T06:35:10.396Z,20.00
2023-01-02T06:37:43.135Z,20.20
2023-01-02T06:42:40.238Z,20.10
2023-01-02T06:45:09.447Z,20.00
2023-01-02T06:47:37.622Z,19.90
2023-01-02T06:52:35.763Z,20.10
2023-01-02T06:55:04.433Z,20.30
2023-01-02T06:57:33.327Z,20.20
2023-01-02T07:02:29.918Z,20.30
2023-01-02T07:09:57.205Z,20.10
2023-01-02T07:12:25.350Z,19.80
2023-01-02T07:14:53.897Z,20.20
2023-01-02T07:17:22.100Z,19.50
2023-01-02T07:39:52.638Z,20.30
2023-01-02T07:42:22.560Z,20.10
2023-01-02T07:47:19.123Z,19.70
2023-01-02T07:49:47.227Z,20.10
2023-01-02T07:54:44.269Z,20.60
2023-01-02T07:57:12.847Z,19.90
2023-01-02T07:59:44.990Z,19.80
2023-01-02T08:02:13.227Z,20.10
2023-01-02T08:07:11.238Z,20.60
2023-01-02T08:14:37.347Z,20.10
2023-01-02T08:19:35.934Z,20.40
2023-01-02T08:22:04.058Z,20.70
2023-01-02T08:24:32.176Z,20.50
2023-01-02T08:27:00.814Z,20.40
2023-01-02T08:29:29.301Z,20.00
2023-01-02T08:31:59.484Z,20.20
2023-01-02T08:34:28.966Z,20.60
2023-01-02T08:36:57.032Z,20.40
2023-01-02T08:39:25.657Z,20.40
2023-01-02T08:41:54.091Z,20.30
2023-01-02T08:44:22.329Z,20.30
2023-01-02T08:46:50.629Z,20.40
2023-01-02T08:49:19.259Z,20.20
2023-01-02T08:51:50.648Z,20.10
2023-01-02T08:56:48.655Z,20.30
2023-01-02T08:59:24.509Z,20.20
2023-01-02T09:01:53.275Z,20.40
2023-01-02T09:04:22.788Z,20.30
2023-01-02T09:06:52.790Z,20.70
2023-01-02T09:09:21.328Z,20.70
2023-01-02T09:11:51.501Z,20.00
2023-01-02T09:14:20.697Z,21.10
2023-01-02T09:16:50.213Z,20.50
2023-01-02T09:19:18.608Z,20.30
2023-01-02T09:21:47.170Z,20.60
2023-01-02T09:24:16.709Z,20.50
2023-01-02T09:26:44.862Z,21.20
2023-01-02T09:29:13.701Z,20.50
2023-01-02T09:31:43.030Z,20.80
2023-01-02T09:34:12.246Z,20.70
2023-01-02T09:39:09.265Z,20.50
2023-01-02T09:41:40.993Z,21.00
2023-01-02T09:44:16.085Z,21.60
2023-01-02T09:46:50.123Z,21.40
2023-01-02T09:49:21.043Z,21.00
2023-01-02T09:51:50.234Z,20.80
2023-01-02T09:54:27.136Z,20.80
2023-01-02T09:57:20.992Z,20.80
2023-01-02T09:59:54.876Z,20.70
2023-01-02T10:02:38.089Z,20.80
2023-01-02T10:05:23.152Z,20.50
2023-01-02T10:07:56.068Z,21.00
2023-01-02T10:10:34.326Z,20.70
2023-01-02T10:13:12.692Z,20.80
2023-01-02T10:15:46.227Z,20.90
2023-01-02T10:18:20.256Z,21.00
2023-01-02T10:20:55.636Z,21.10
2023-01-02T10:23:27.085Z,20.70
2023-01-02T10:26:00.737Z,21.20
2023-01-02T10:28:38.853Z,21.30
2023-01-02T10:31:11.957Z,20.90
2023-01-02T10:33:46.261Z,21.20
2023-01-02T10:36:24.265Z,21.00
2023-01-02T10:38:53.381Z,21.70
2023-01-02T10:41:21.597Z,21.40
2023-01-02T10:43:57.045Z,21.80
2023-01-02T10:46:25.272Z,21.60
2023-01-02T10:48:53.446Z,21.30
2023-01-02T10:51:22.185Z,21.10
2023-01-02T10:54:02.028Z,20.90
2023-01-02T10:56:33.370Z,21.10
2023-01-02T10:59:03.462Z,21.10
2023-01-02T11:01:32.151Z,21.20
2023-01-02T11:04:14.663Z,21.60
2023-01-02T11:06:55.727Z,21.50
2023-01-02T11:09:26.377Z,21.20
2023-01-02T11:11:56.644Z,22.00
2023-01-02T11:14:30.466Z,21.20
2023-01-02T11:19:40.109Z,21.60
2023-01-02T11:22:09.618Z,21.30
2023-01-02T11:25:00.459Z,21.50
2023-01-02T11:27:33.712Z,21.30
2023-01-02T11:30:04.752Z,21.20
2023-01-02T11:32:39.563Z,21.30
2023-01-02T11:35:33.137Z,22.20
2023-01-02T11:38:03.445Z,21.40
2023-01-02T11:40:33.075Z,21.30
2023-01-02T11:43:25.047Z,21.30
2023-01-02T11:45:55.449Z,21.50
2023-01-02T11:48:24.976Z,21.90
2023-01-02T11:50:54.730Z,22.00
2023-01-02T11:53:28.543Z,21.90
2023-01-02T11:56:01.563Z,22.00
2023-01-02T11:58:35.831Z,21.30
2023-01-02T12:01:11.099Z,21.70
2023-01-02T12:03:40.878Z,22.00
2023-01-02T12:06:18.061Z,21.80
2023-01-02T12:08:56.068Z,21.60
2023-01-02T12:11:33.809Z,21.90
2023-01-02T12:14:13.353Z,21.80
2023-01-02T12:16:50.373Z,21.20
2023-01-02T12:19:34.184Z,21.70
2023-01-02T12:22:19.287Z,22.00
2023-01-02T12:25:23.909Z,21.50
2023-01-02T12:27:59.318Z,21.70
2023-01-02T12:33:14.083Z,21.70
2023-01-02T12:38:40.337Z,21.30
2023-01-02T12:41:23.265Z,21.70
2023-01-02T12:44:13.978Z,21.90
2023-01-02T12:46:57.616Z,21.90
2023-01-02T12:49:47.818Z,21.60
2023-01-02T12:52:28.311Z,22.60
2023-01-02T12:55:14.622Z,21.50
2023-01-02T12:57:54.121Z,21.40
2023-01-02T13:00:47.528Z,22.10
2023-01-02T13:03:41.980Z,21.90
2023-01-02T13:06:43.453Z,21.90
2023-01-02T13:09:10.469Z,21.40
2023-01-02T13:11:43.944Z,21.00
2023-01-02T13:14:17.937Z,21.90
2023-01-02T13:16:50.474Z,21.60
2023-01-02T13:19:26.259Z,21.90
2023-01-02T13:22:03.754Z,21.70
2023-01-02T13:24:32.541Z,21.90
2023-01-02T13:27:00.907Z,21.60
2023-01-02T13:29:40.326Z,21.80
2023-01-02T13:32:10.740Z,21.80
2023-01-02T13:34:47.730Z,21.60
2023-01-02T13:37:19.974Z,21.70
2023-01-02T13:39:51.197Z,21.80
2023-01-02T13:42:43.837Z,21.60
2023-01-02T13:45:15.630Z,21.60
2023-01-02T13:47:49.629Z,22.40
2023-01-02T13:50:23.820Z,21.80
2023-01-02T13:53:27.634Z,21.50
2023-01-02T13:56:13.938Z,21.50
2023-01-02T13:58:48.195Z,21.80
2023-01-02T14:01:41.783Z,21.50
2023-01-02T14:04:30.235Z,21.40
2023-01-02T14:07:39.050Z,21.20
2023-01-02T14:10:35.968Z,21.80
2023-01-02T14:15:58.013Z,21.30
2023-01-02T14:18:30.881Z,21.20
2023-01-02T14:20:59.224Z,21.10
2023-01-02T14:23:31.301Z,21.00
2023-01-02T14:26:00.979Z,21.30
2023-01-02T14:28:31.452Z,21.00
2023-01-02T14:31:00.267Z,21.40
2023-01-02T14:33:33.924Z,22.20
2023-01-02T14:36:07.715Z,20.70
2023-01-02T14:38:41.587Z,21.50
2023-01-02T14:41:57.401Z,21.30
2023-01-02T14:44:26.973Z,21.20
2023-01-02T14:46:55.811Z,21.50
2023-01-02T14:49:27.073Z,21.40
2023-01-02T14:52:01.290Z,21.40
2023-01-02T14:54:34.575Z,21.80
2023-01-02T14:57:11.885Z,21.50
2023-01-02T14:59:44.653Z,21.10
2023-01-02T15:02:17.456Z,21.30
2023-01-02T15:04:50.265Z,20.80
2023-01-02T15:07:25.894Z,20.90
2023-01-02T15:12:44.635Z,21.30
2023-01-02T15:15:15.815Z,20.90
2023-01-02T15:17:46.713Z,20.50
2023-01-02T15:20:21.347Z,21.40
2023-01-02T15:25:32.755Z,20.90
2023-01-02T15:28:00.876Z,21.40
2023-01-02T15:30:33.595Z,20.60
2023-01-02T15:35:34.669Z,21.30
2023-01-02T15:40:33.102Z,21.10
2023-01-02T15:43:19.611Z,20.90
2023-01-02T15:48:22.587Z,21.00
2023-01-02T15:50:53.396Z,20.70
2023-01-02T15:53:26.590Z,20.70
2023-01-02T15:55:55.221Z,20.80
2023-01-02T15:58:29.751Z,20.50
2023-01-02T16:01:18.781Z,20.70
2023-01-02T16:04:00.848Z,20.90
2023-01-02T16:06:35.617Z,21.10
2023-01-02T16:09:05.399Z,21.60
2023-01-02T16:11:34.929Z,20.90
2023-01-02T16:14:20.904Z,21.10
2023-01-02T16:16:55.029Z,20.40
2023-01-02T16:19:31.434Z,21.40
2023-01-02T16:22:06.942Z,20.60
2023-01-02T16:24:38.666Z,20.90
2023-01-02T16:27:07.108Z,20.80
2023-01-02T16:32:05.044Z,21.20
2023-01-02T16:34:38.233Z,21.60
2023-01-02T16:37:27.825Z,20.90
2023-01-02T16:39:56.050Z,21.20
2023-01-02T16:42:41.522Z,21.00
2023-01-02T16:45:11.905Z,21.10
2023-01-02T16:47:44.818Z,20.70
2023-01-02T16:50:18.279Z,20.80
2023-01-02T16:52:47.201Z,20.90
2023-01-02T16:55:17.947Z,20.70
2023-01-02T16:57:46.122Z,21.10
2023-01-02T17:00:15.693Z,20.70
2023-01-02T17:02:46.255Z,20.60
2023-01-02T17:05:19.854Z,20.70
2023-01-02T17:12:44.906Z,20.70
2023-01-02T17:15:15.466Z,20.70
2023-01-02T17:17:45.028Z,20.60
2023-01-02T17:20:14.433Z,20.70
2023-01-02T17:22:43.123Z,21.20
2023-01-02T17:25:15.084Z,20.20
2023-01-02T17:27:43.542Z,20.30
2023-01-02T17:30:13.974Z,20.70
2023-01-02T17:32:42.498Z,21.40
2023-01-02T17:35:13.049Z,20.30
2023-01-02T17:37:41.590Z,20.60
2023-01-02T17:40:11.947Z,20.90
2023-01-02T17:42:40.659Z,20.50
2023-01-02T17:45:10.423Z,20.70
2023-01-02T17:50:28.912Z,20.80
2023-01-02T17:52:57.074Z,20.50
2023-01-02T17:57:53.896Z,20.10
2023-01-02T18:00:23.340Z,20.70
2023-01-02T18:02:53.681Z,19.90
2023-01-02T18:05:22.598Z,21.00
2023-01-02T18:07:52.226Z,20.60
2023-01-02T18:10:21.381Z,20.50
2023-01-02T18:12:50.480Z,21.00
2023-01-02T18:15:21.093Z,20.40
2023-01-02T18:20:20.580Z,20.50
2023-01-02T18:25:24.425Z,19.20
2023-01-02T18:30:23.922Z,20.30
2023-01-02T18:33:11.679Z,20.60
2023-01-02T18:38:32.359Z,21.00
2023-01-02T18:41:03.471Z,20.60
2023-01-02T18:43:35.685Z,20.50
2023-01-02T18:46:16.055Z,20.00
2023-01-02T18:51:18.285Z,20.00
2023-01-02T18:53:50.192Z,20.80
2023-01-02T18:56:23.904Z,20.60
2023-01-02T18:58:59.911Z,20.50
2023-01-02T19:01:30.930Z,20.70
2023-01-02T19:04:22.329Z,21.00
2023-01-02T19:06:56.591Z,20.30
2023-01-02T19:09:32.511Z,20.40
2023-01-02T19:12:36.325Z,20.60
2023-01-02T19:15:32.453Z,20.90
2023-01-02T19:20:29.490Z,20.00
2023-01-02T19:23:01.295Z,20.20
2023-01-02T19:25:30.278Z,20.40
2023-01-02T19:28:02.881Z,20.20
2023-01-02T19:30:36.024Z,20.40
2023-01-02T19:33:27.010Z,20.20
2023-01-02T19:35:59.446Z,20.10
2023-01-02T19:38:29.392Z,20.80
2023-01-02T19:40:58.861Z,19.60
2023-01-02T19:43:29.390Z,19.80
2023-01-02T19:45:58.155Z,20.20
2023-01-02T19:50:55.418Z,20.30
2023-01-02T20:00:50.428Z,20.40
2023-01-02T20:05:47.309Z,20.50
2023-01-02T20:08:15.439Z,20.60
2023-01-02T20:15:40.993Z,20.00
2023-01-02T20:18:10.915Z,19.60
2023-01-02T20:20:39.410Z,20.00
2023-01-02T20:28:04.974Z,19.90
2023-01-02T20:33:02.309Z,19.80
2023-01-02T20:35:31.962Z,19.80
2023-01-02T20:38:00.485Z,20.10
2023-01-02T20:40:28.869Z,20.60
2023-01-02T20:42:57.431Z,20.00
2023-01-02T20:47:54.049Z,19.90
2023-01-02T20:50:22.576Z,20.20
2023-01-02T20:55:25.401Z,20.20
2023-01-02T21:00:22.060Z,20.50
2023-01-02T21:10:17.327Z,20.20
2023-01-02T21:13:03.076Z,20.20
2023-01-02T21:15:45.207Z,19.90
2023-01-02T21:18:17.319Z,19.70
2023-01-02T21:20:46.989Z,19.80
2023-01-02T21:23:16.472Z,19.90
2023-01-02T21:25:46.747Z,20.00
2023-01-02T21:28:15.967Z,19.80
2023-01-02T21:30:45.055Z,19.70
2023-01-02T21:35:42.980Z,19.60
2023-01-02T21:40:40.045Z,19.60
2023-01-02T21:43:09.920Z,22.80
2023-01-02T21:45:39.062Z,19.50
2023-01-02T21:48:08.127Z,20.10
2023-01-02T21:50:36.485Z,19.30
2023-01-02T21:53:04.740Z,19.70
2023-01-02T22:00:46.536Z,19.30
2023-01-02T22:03:15.984Z,19.30
2023-01-02T22:05:45.107Z,19.40
2023-01-02T22:08:13.280Z,18.70
2023-01-02T22:10:41.403Z,19.30
2023-01-02T22:13:09.515Z,19.30
2023-01-02T22:18:07.498Z,19.60
2023-01-02T22:33:03.938Z,18.80
2023-01-02T22:35:34.539Z,19.20
2023-01-02T22:40:32.239Z,19.00
2023-01-02T22:43:02.801Z,19.20
2023-01-02T22:45:35.249Z,19.40
2023-01-02T22:48:07.300Z,19.10
2023-01-02T22:50:43.321Z,18.90
2023-01-02T22:53:19.234Z,17.00
2023-01-02T22:55:47.434Z,19.30
2023-01-02T23:00:44.135Z,18.90
2023-01-02T23:03:13.859Z,19.10
2023-01-02T23:05:44.081Z,18.80
2023-01-02T23:21:14.020Z,18.70
2023-01-02T23:29:05.863Z,18.70
2023-01-02T23:33:56.830Z,18.70
2023-01-02T23:38:54.804Z,18.70
2023-01-02T23:53:47.887Z,18.70
2023-01-02T23:56:19.958Z,18.80
